Map

Track Data

SID SEASON NUMBER BASIN SUBBASIN NAME ISO_TIME NATURE LAT LON WMO_WIND WMO_PRES WMO_AGENCY TRACK_TYPE DIST2LAND LANDFALL IFLAG USA_AGENCY USA_ATCF_ID USA_LAT USA_LON USA_RECORD USA_STATUS USA_WIND USA_PRES USA_SSHS USA_R34_NE USA_R34_SE USA_R34_SW USA_R34_NW USA_R50_NE USA_R50_SE USA_R50_SW USA_R50_NW USA_R64_NE USA_R64_SE USA_R64_SW USA_R64_NW USA_POCI USA_ROCI USA_RMW USA_EYE TOKYO_LAT TOKYO_LON TOKYO_GRADE TOKYO_WIND TOKYO_PRES TOKYO_R50_DIR TOKYO_R50_LONG TOKYO_R50_SHORT TOKYO_R30_DIR TOKYO_R30_LONG TOKYO_R30_SHORT TOKYO_LAND CMA_LAT CMA_LON CMA_CAT CMA_WIND CMA_PRES HKO_LAT HKO_LON HKO_CAT HKO_WIND HKO_PRES NEWDELHI_LAT NEWDELHI_LON NEWDELHI_GRADE NEWDELHI_WIND NEWDELHI_PRES NEWDELHI_CI NEWDELHI_DP NEWDELHI_POCI REUNION_LAT REUNION_LON REUNION_TYPE REUNION_WIND REUNION_PRES REUNION_TNUM REUNION_CI REUNION_RMW REUNION_R34_NE REUNION_R34_SE REUNION_R34_SW REUNION_R34_NW REUNION_R50_NE REUNION_R50_SE REUNION_R50_SW REUNION_R50_NW REUNION_R64_NE REUNION_R64_SE REUNION_R64_SW REUNION_R64_NW BOM_LAT BOM_LON BOM_TYPE BOM_WIND BOM_PRES BOM_TNUM BOM_CI BOM_RMW BOM_R34_NE BOM_R34_SE BOM_R34_SW BOM_R34_NW BOM_R50_NE BOM_R50_SE BOM_R50_SW BOM_R50_NW BOM_R64_NE BOM_R64_SE BOM_R64_SW BOM_R64_NW BOM_ROCI BOM_POCI BOM_EYE BOM_POS_METHOD BOM_PRES_METHOD NADI_LAT NADI_LON NADI_CAT NADI_WIND NADI_PRES WELLINGTON_LAT WELLINGTON_LON WELLINGTON_WIND WELLINGTON_PRES DS824_LAT DS824_LON DS824_STAGE DS824_WIND DS824_PRES TD9636_LAT TD9636_LON TD9636_STAGE TD9636_WIND TD9636_PRES TD9635_LAT TD9635_LON TD9635_WIND TD9635_PRES TD9635_ROCI NEUMANN_LAT NEUMANN_LON NEUMANN_CLASS NEUMANN_WIND NEUMANN_PRES MLC_LAT MLC_LON MLC_CLASS MLC_WIND MLC_PRES USA_GUST BOM_GUST BOM_GUST_PER REUNION_GUST REUNION_GUST_PER USA_SEAHGT USA_SEARAD_NE USA_SEARAD_SE USA_SEARAD_SW USA_SEARAD_NW STORM_SPEED STORM_DIR
2001125N05129 2001 21 WP MM CIMARON 2001-05-05 00:00:00 TS 5.30000 129.000 main 315 277 O_____________ jtwc_wp WP032001 5.30000 129.000 TD 25 -1 10 305
2001125N05129 2001 21 WP MM CIMARON 2001-05-05 03:00:00 TS 5.59759 128.573 main 277 223 P_____________ WP032001 5.59759 128.573 TD 22 -1 10 307
2001125N05129 2001 21 WP MM CIMARON 2001-05-05 06:00:00 TS 5.90000 128.200 main 223 178 O_____________ jtwc_wp WP032001 5.90000 128.200 TD 20 -1 9 313
2001125N05129 2001 21 WP MM CIMARON 2001-05-05 09:00:00 TS 6.20746 127.920 main 178 143 P_____________ WP032001 6.20746 127.920 TD 20 -1 8 320
2001125N05129 2001 21 WP MM CIMARON 2001-05-05 12:00:00 TS 6.50000 127.700 main 143 115 O_____________ jtwc_wp WP032001 6.50000 127.700 TD 20 -1 7 321
2001125N05129 2001 21 WP MM CIMARON 2001-05-05 15:00:00 TS 6.74249 127.485 main 115 84 P_____________ WP032001 6.74249 127.485 TD 20 -1 6 321
2001125N05129 2001 21 WP MM CIMARON 2001-05-05 18:00:00 TS 7.00000 127.300 main 84 55 O_____________ jtwc_wp WP032001 7.00000 127.300 TD 20 -1 7 330
2001125N05129 2001 21 WP MM CIMARON 2001-05-05 21:00:00 TS 7.34249 127.135 main 55 44 P_____________ WP032001 7.34249 127.135 TD 20 -1 8 337
2001125N05129 2001 21 WP MM CIMARON 2001-05-06 00:00:00 TS 7.70000 127.000 main 44 34 O_____________ jtwc_wp WP032001 7.70000 127.000 TD 20 -1 7 340
2001125N05129 2001 21 WP MM CIMARON 2001-05-06 03:00:00 TS 7.99999 126.892 main 47 44 P_____________ WP032001 7.99999 126.892 TD 20 -1 6 342
2001125N05129 2001 21 WP MM CIMARON 2001-05-06 06:00:00 TS 8.30000 126.800 main 44 39 O_____________ jtwc_wp WP032001 8.30000 126.800 TD 20 -1 7 343
2001125N05129 2001 21 WP MM CIMARON 2001-05-06 09:00:00 TS 8.65750 126.693 main 45 32 P_____________ WP032001 8.65750 126.693 TD 20 -1 7 344
2001125N05129 2001 21 WP MM CIMARON 2001-05-06 12:00:00 TS 9.00000 126.600 main 39 32 O_____________ jtwc_wp WP032001 9.00000 126.600 TD 20 -1 6 346
2001125N05129 2001 21 WP MM CIMARON 2001-05-06 15:00:00 TS 9.27249 126.535 main 34 34 P_____________ WP032001 9.27249 126.535 TD 20 -1 5 349
2001125N05129 2001 21 WP MM CIMARON 2001-05-06 18:00:00 TS 9.50000 126.500 main 47 47 O_____________ jtwc_wp WP032001 9.50000 126.500 TD 20 -1 4 355
2001125N05129 2001 21 WP MM CIMARON 2001-05-06 21:00:00 TS 9.70750 126.492 main 59 59 P_____________ WP032001 9.70750 126.492 TD 22 -1 4 0
2001125N05129 2001 21 WP MM CIMARON 2001-05-07 00:00:00 TS 9.90000 126.500 main 70 70 O_____________ jtwc_wp WP032001 9.90000 126.500 TD 25 1006 -1 4 4
2001125N05129 2001 21 WP MM CIMARON 2001-05-07 03:00:00 TS 10.1000 126.522 main 86 86 P_____________ WP032001 10.1000 126.522 TD 25 -1 4 0
2001125N05129 2001 21 WP MM CIMARON 2001-05-07 06:00:00 TS 10.3000 126.500 main 105 86 O_____________ jtwc_wp WP032001 10.3000 126.500 TD 25 -1 4 343
2001125N05129 2001 21 WP MM CIMARON 2001-05-07 09:00:00 TS 10.5075 126.395 main 86 55 P_____________ WP032001 10.5075 126.395 TD 25 -1 5 324
2001125N05129 2001 21 WP MM CIMARON 2001-05-07 12:00:00 TS 10.7000 126.200 main 55 24 O_____________ jtwc_wp WP032001 10.7000 126.200 TD 25 -1 6 308
2001125N05129 2001 21 WP MM CIMARON 2001-05-07 15:00:00 TS 10.8575 125.930 main 15 10 P_____________ WP032001 10.8575 125.930 TD 25 -1 7 297
2001125N05129 2001 21 WP MM CIMARON 2001-05-07 18:00:00 TS 11.0000 125.600 main 15 0 O_____________ jtwc_wp WP032001 11.0000 125.600 TD 25 -1 7 294
2001125N05129 2001 21 WP MM CIMARON 2001-05-07 21:00:00 TS 11.1500 125.257 main 0 0 P_____________ WP032001 11.1500 125.257 TD 25 -1 8 294
2001125N05129 2001 21 WP MM CIMARON 2001-05-08 00:00:00 TS 11.3000 124.900 main 0 0 O_____________ jtwc_wp WP032001 11.3000 124.900 TD 25 -1 8 294
2001125N05129 2001 21 WP MM CIMARON 2001-05-08 03:00:00 TS 11.4650 124.550 main 15 0 P_____________ WP032001 11.4650 124.550 TD 25 -1 8 294
2001125N05129 2001 21 WP MM CIMARON 2001-05-08 06:00:00 TS 11.6000 124.200 main 15 10 O_____________ jtwc_wp WP032001 11.6000 124.200 TD 25 -1 7 287
2001125N05129 2001 21 WP MM CIMARON 2001-05-08 09:00:00 TS 11.6649 123.865 main 15 15 P_____________ WP032001 11.6649 123.865 TD 25 -1 7 278
2001125N05129 2001 21 WP MM CIMARON 2001-05-08 12:00:00 TS 11.7000 123.500 main 31 22 O_____________ jtwc_wp WP032001 11.7000 123.500 TD 25 -1 8 276
2001125N05129 2001 21 WP MM CIMARON 2001-05-08 15:00:00 TS 11.7499 123.080 main 22 22 P_____________ WP032001 11.7499 123.080 TD 25 -1 9 276
2001125N05129 2001 21 WP MM CIMARON 2001-05-08 18:00:00 TS 11.8000 122.600 main 24 0 O_____________ jtwc_wp WP032001 11.8000 122.600 TD 25 -1 10 276
2001125N05129 2001 21 WP MM CIMARON 2001-05-08 21:00:00 TS 11.8500 122.065 main 0 0 P_____________ WP032001 11.8500 122.065 TD 25 -1 11 275
2001125N05129 2001 21 WP MM CIMARON 2001-05-09 00:00:00 TS 11.9000 121.500 main 34 33 O_____________ jtwc_wp WP032001 11.9000 121.500 TD 25 1002 -1 11 274
2001125N05129 2001 21 WP MM CIMARON 2001-05-09 03:00:00 TS 11.9200 120.927 main 40 40 P_____________ WP032001 11.9200 120.927 TD 27 1001 -1 11 275
2001125N05129 2001 21 WP MM CIMARON 2001-05-09 06:00:00 TS 12.0000 120.400 main 79 79 O_____________ jtwc_wp WP032001 12.0000 120.400 TD 30 1000 -1 10 287
2001125N05129 2001 21 WP MM CIMARON 2001-05-09 09:00:00 TS 12.2125 119.940 main 105 103 P_____________ WP032001 12.2125 119.940 TD 30 1000 -1 7 292
2001125N05129 2001 21 WP MM CIMARON 2001-05-09 12:00:00 TS 12.2667 119.733 1004 tokyo main 112 111 OOO___________ jtwc_wp WP032001 12.5000 119.600 TD 30 1000 -1 11.8000 120.000 2 1004 0 0 0 11.8000 120.000 1 23 1004 4 299
2001125N05129 2001 21 WP MM CIMARON 2001-05-09 15:00:00 TS 12.4050 119.579 main 123 123 PPP___________ WP032001 12.7849 119.390 TD 30 1000 -1 12.0251 119.768 2 1004 0 0 12.0251 119.768 1 23 1004 4 325
2001125N05129 2001 21 WP MM CIMARON 2001-05-09 18:00:00 TS 12.6200 119.480 1004 tokyo main 124 103 OOO___________ jtwc_wp WP032001 13.1000 119.300 TD 30 1000 -1 12.3000 119.600 2 1004 0 0 0 12.3000 119.600 1 23 1004 5 346
2001125N05129 2001 21 WP MM CIMARON 2001-05-09 21:00:00 TS 12.9225 119.449 main 112 98 PPP___________ WP032001 13.4425 119.277 TD 32 998 -1 12.6625 119.535 2 1004 0 0 12.6625 119.535 1 23 1004 7 357
2001125N05129 2001 21 WP MM CIMARON 2001-05-10 00:00:00 TS 13.3333 119.433 1004 tokyo main 98 97 OOO___________ jtwc_wp WP032001 13.8000 119.300 TS 35 997 0 13.1000 119.500 2 1004 0 0 0 13.1000 119.500 1 23 1004 8 355
2001125N05129 2001 21 WP MM CIMARON 2001-05-10 03:00:00 TS 13.7608 119.374 main 107 107 PPP___________ WP032001 14.1425 119.307 TS 35 997 0 13.5700 119.408 2 1004 0 0 13.5700 119.408 1 26 1003 9 354
2001125N05129 2001 21 WP MM CIMARON 2001-05-10 06:00:00 TS 14.1846 119.338 1004 tokyo main 109 88 OOOO__________ jtwc_wp WP032001 14.5000 119.300 TS 35 997 0 14.1000 119.300 2 1004 0 0 0 14.1000 119.300 1 29 1002 13.6000 119.800 TD 25 1002 9 355
2001125N05129 2001 21 WP MM CIMARON 2001-05-10 09:00:00 TS 14.6661 119.288 main 86 72 PPPP__________ WP032001 14.8925 119.258 TS 37 995 0 14.7075 119.185 2 1003 0 0 14.7075 119.185 1 29 1002 14.0475 119.762 TD 25 1002 10 355
2001125N05129 2001 21 WP MM CIMARON 2001-05-10 12:00:00 TS 15.1400 119.247 1002 tokyo main 82 75 OOOO__________ jtwc_wp WP032001 15.3000 119.200 TS 40 994 0 15.3000 119.100 2 1002 0 0 0 15.3000 119.100 1 29 1002 14.5000 119.700 TD 25 1002 9 356
2001125N05129 2001 21 WP MM CIMARON 2001-05-10 15:00:00 TS 15.5487 119.230 main 75 53 PPPP__________ WP032001 15.6925 119.150 TS 40 994 0 15.7725 119.085 2 1002 0 0 15.7725 119.085 1 29 1002 14.9575 119.600 TD 25 1002 8 358
2001125N05129 2001 21 WP MM CIMARON 2001-05-10 18:00:00 TS 15.9750 119.200 1002 tokyo main 53 53 OOOO__________ jtwc_wp WP032001 16.1000 119.100 TS 40 994 0 16.2000 119.100 2 1002 0 0 0 16.2000 119.100 1 29 1002 15.4000 119.500 TD 25 1002 9 356
2001125N05129 2001 21 WP MM CIMARON 2001-05-10 21:00:00 TS 16.4331 119.168 main 65 65 PPPP__________ WP032001 16.5575 119.028 TS 40 994 0 16.6800 119.100 2 1001 0 0 16.6800 119.100 1 29 1001 15.8150 119.442 TD 27 1001 9 358
2001125N05129 2001 21 WP MM CIMARON 2001-05-11 00:00:00 TS 16.8500 119.150 35 1000 tokyo main 92 84 OOOO__________ jtwc_wp WP032001 17.0000 119.000 TS 40 994 0 17.1000 119.100 3 35 1000 0 9 70 70 0 17.1000 119.100 1 29 1000 16.2000 119.400 TD 30 1000 8 358
2001125N05129 2001 21 WP MM CIMARON 2001-05-11 03:00:00 TS 17.1781 119.149 main 125 118 PPPP__________ WP032001 17.3875 119.070 TS 40 994 0 17.3875 119.093 3 35 999 0 9 85 85 17.3800 119.093 1 31 999 16.5575 119.343 TD 32 999 6 1
2001125N05129 2001 21 WP MM CIMARON 2001-05-11 06:00:00 TS 17.4500 119.175 35 998 tokyo main 117 116 OOOO__________ jtwc_wp WP032001 17.7000 119.200 TS 40 994 0 17.6000 119.100 3 35 998 0 9 100 100 0 17.6000 119.100 2 34 998 16.9000 119.300 TS 35 998 5 8
2001125N05129 2001 21 WP MM CIMARON 2001-05-11 09:00:00 TS 17.7112 119.223 main 117 108 PPPP__________ WP032001 17.9300 119.343 TS 42 994 0 17.8075 119.135 3 35 998 0 9 100 100 17.8575 119.128 2 34 998 17.2500 119.285 TS 35 998 5 14
2001125N05129 2001 21 WP MM CIMARON 2001-05-11 12:00:00 TS 17.9500 119.300 35 998 tokyo main 114 110 OOOO__________ jtwc_wp WP032001 18.1000 119.500 TS 45 994 0 18.0000 119.200 3 35 998 0 9 100 100 0 18.1000 119.200 2 34 998 17.6000 119.300 TS 35 998 5 19
2001125N05129 2001 21 WP MM CIMARON 2001-05-11 15:00:00 TS 18.1769 119.394 main 116 107 PPPP__________ WP032001 18.2500 119.650 TS 45 992 0 18.1924 119.270 3 37 997 0 9 105 105 18.3075 119.328 2 36 996 17.9575 119.328 TS 37 997 5 25
2001125N05129 2001 21 WP MM CIMARON 2001-05-11 18:00:00 TS 18.4000 119.525 40 996 tokyo main 110 97 OOOO__________ jtwc_wp WP032001 18.4000 119.800 TS 45 991 0 18.4000 119.400 3 40 996 0 9 110 110 0 18.5000 119.500 2 38 995 18.3000 119.400 TS 40 996 5 32
2001125N05129 2001 21 WP MM CIMARON 2001-05-11 21:00:00 TS 18.6262 119.694 main 97 86 PPPP__________ WP032001 18.5775 119.950 TS 45 991 0 18.6350 119.620 3 40 995 0 9 140 120 18.6850 119.685 2 41 992 18.6075 119.520 TS 40 996 6 37
2001125N05129 2001 21 WP MM CIMARON 2001-05-12 00:00:00 TS 18.8750 119.900 40 994 tokyo main 92 92 OOOO__________ jtwc_wp WP032001 18.8000 120.100 TS 45 991 0 18.9000 119.900 3 40 994 0 2 170 130 0 18.9000 119.900 2 44 990 18.9000 119.700 TS 40 996 7 37
2001125N05129 2001 21 WP MM CIMARON 2001-05-12 03:00:00 TS 19.1712 120.126 main 99 92 PPPP__________ WP032001 19.0849 120.235 TS 45 992 0 19.2000 120.200 3 40 994 0 2 170 130 19.1925 120.135 2 44 990 19.2075 119.935 TS 40 996 8 37
2001125N05129 2001 21 WP MM CIMARON 2001-05-12 06:00:00 TS 19.4750 120.375 40 994 tokyo main 109 109 OOOO__________ jtwc_wp WP032001 19.4000 120.400 TS 45 994 0 19.5000 120.500 3 40 994 0 2 170 130 0 19.5000 120.400 2 44 990 19.5000 120.200 TS 40 996 8 41
2001125N05129 2001 21 WP MM CIMARON 2001-05-12 09:00:00 TS 19.7437 120.649 main 124 124 PPPP__________ WP032001 19.6925 120.635 TS 45 994 0 19.7671 120.788 3 40 994 0 2 170 130 19.7576 120.722 2 44 990 19.7575 120.450 TS 40 996 7 43
2001125N05129 2001 21 WP MM CIMARON 2001-05-12 12:00:00 TS 20.0000 120.900 40 994 tokyo main 156 156 OOOO__________ jtwc_wp WP032001 20.0000 120.900 TS 45 994 0 20.0000 121.000 3 40 994 0 2 170 130 0 20.0000 121.000 2 44 990 20.0000 120.700 TS 40 996 7 38
2001125N05129 2001 21 WP MM CIMARON 2001-05-12 15:00:00 TS 20.2549 121.071 45 992 tokyo main 180 159 POPP__________ WP032001 20.3349 121.135 TS 47 992 0 20.2000 121.100 3 45 992 0 2 170 130 0 20.2424 121.108 2 44 990 20.2424 120.943 TS 42 993 6 34
2001125N05129 2001 21 WP MM CIMARON 2001-05-12 18:00:00 TS 20.5250 121.275 45 990 tokyo main 161 137 OOOO__________ jtwc_wp WP032001 20.7000 121.400 TS 50 991 0 20.4000 121.300 3 45 990 0 2 190 140 0 20.5000 121.200 2 44 990 20.5000 121.200 TS 45 990 7 36
2001125N05129 2001 21 WP MM CIMARON 2001-05-12 21:00:00 TS 20.8349 121.528 45 990 tokyo main 137 121 POPP__________ WP032001 21.1076 121.742 TS 50 987 0 20.7000 121.500 3 45 990 0 2 190 140 0 20.7623 121.390 2 44 990 20.7699 121.478 TS 45 990 8 39
2001125N05129 2001 21 WP MM CIMARON 2001-05-13 00:00:00 TS 21.1500 121.825 50 985 tokyo main 121 121 OOOO__________ jtwc_wp WP032001 21.5000 122.100 TS 50 984 0 20.9000 121.700 4 50 985 0 2 200 150 0 21.1000 121.700 2 44 990 21.1000 121.800 TS 45 990 10 40
2001125N05129 2001 21 WP MM CIMARON 2001-05-13 03:00:00 TS 21.6149 122.224 50 985 tokyo main 138 138 POPP__________ WP032001 21.7770 122.356 TS 50 985 0 21.6000 122.200 4 50 985 0 2 200 150 0 21.5702 122.170 2 46 987 21.5124 122.170 TS 47 987 12 40
2001125N05129 2001 21 WP MM CIMARON 2001-05-13 06:00:00 TS 22.0750 122.650 45 990 tokyo main 174 167 OOOO__________ jtwc_wp WP032001 22.1000 122.700 TS 50 987 0 22.1000 122.600 3 45 990 0 2 200 150 0 22.1000 122.700 3 48 985 22.0000 122.600 STS 50 985 13 42
2001125N05129 2001 21 WP MM CIMARON 2001-05-13 09:00:00 TS 22.5848 123.168 45 990 tokyo main 192 192 POPP__________ WP032001 22.6204 123.304 TS 52 987 0 22.6000 123.200 3 45 990 0 2 200 150 0 22.5844 123.114 3 48 985 22.5347 123.055 STS 50 985 15 45
2001125N05129 2001 21 WP MM CIMARON 2001-05-13 12:00:00 TS 23.1250 123.775 45 990 tokyo main 243 241 OOOO__________ jtwc_wp WP032001 23.2000 124.000 TS 55 987 0 23.1000 123.900 3 45 990 0 2 200 150 0 23.1000 123.600 3 48 985 23.1000 123.600 STS 50 985 16 47
2001125N05129 2001 21 WP MM CIMARON 2001-05-13 15:00:00 TS 23.6550 124.421 45 990 tokyo main 268 268 POPP__________ WP032001 23.6996 124.601 TS 57 985 0 23.6000 124.500 3 45 990 0 2 200 150 0 23.6778 124.312 3 48 985 23.6426 124.270 STS 50 985 17 47
2001125N05129 2001 21 WP MM CIMARON 2001-05-13 18:00:00 TS 24.2750 125.125 45 990 tokyo main 322 322 OOOO__________ jtwc_wp WP032001 24.2000 125.200 TS 60 984 0 24.4000 125.200 3 45 990 0 2 170 130 0 24.3000 125.100 3 48 985 24.2000 125.000 STS 50 985 17 45
2001125N05129 2001 21 WP MM CIMARON 2001-05-13 21:00:00 TS 24.8728 125.780 45 990 tokyo main 382 382 POPP__________ WP032001 24.7422 125.835 TS 57 984 0 25.0000 125.800 3 45 990 0 2 170 130 0 24.9570 125.801 3 48 985 24.7920 125.686 STS 50 985 17 46
2001125N05129 2001 21 WP MM CIMARON 2001-05-14 00:00:00 TS 25.4750 126.475 45 990 tokyo main 455 455 OOOO__________ jtwc_wp WP032001 25.3000 126.500 TS 55 984 0 25.6000 126.500 3 45 990 0 2 170 130 0 25.6000 126.500 3 48 985 25.4000 126.400 STS 50 985 18 47
2001125N05129 2001 21 WP MM CIMARON 2001-05-14 03:00:00 TS 26.0724 127.209 45 992 tokyo main 535 535 POPP__________ WP032001 25.8573 127.193 TS 50 987 0 26.2000 127.200 3 45 992 0 2 170 130 0 26.2101 127.272 3 43 987 26.0220 127.170 STS 45 989 18 50
2001125N05129 2001 21 WP MM CIMARON 2001-05-14 06:00:00 TS 26.6143 127.979 40 996 tokyo main 556 484 OOOO__________ jtwc_wp WP032001 26.4000 127.900 TS 45 991 0 26.7000 128.000 3 40 996 0 2 170 130 0 26.7000 128.000 2 38 990 26.6000 128.000 TS 40 994 16 51
2001125N05129 2001 21 WP MM CIMARON 2001-05-14 09:00:00 TS 27.0708 128.565 35 998 tokyo main 480 448 POPP__________ WP032001 26.9106 128.601 TS 47 994 0 27.2000 128.400 3 35 998 0 2 170 130 0 27.0165 128.551 2 36 994 27.0812 128.884 TS 37 997 13 59
2001125N05129 2001 21 WP MM CIMARON 2001-05-14 12:00:00 MX 27.2500 129.190 1000 tokyo main 437 422 OOOO__________ jtwc_wp WP032001 27.4000 129.300 TS 50 997 0 30 30 30 30 1007 180 60 27.2000 129.100 6 1000 0 0 0 27.2000 129.100 2 34 998 27.5000 129.800 TS 35 1000 12 78
2001125N05129 2001 21 WP MM CIMARON 2001-05-14 15:00:00 MX 27.3118 129.867 main 420 401 _PP___________ WP032001 TS -1 27.2935 129.906 6 1000 0 0 27.3301 129.828 2 31 999 TS 13 83
2001125N05129 2001 21 WP MM CIMARON 2001-05-14 18:00:00 MX 27.4000 130.650 1000 tokyo main 401 401 _OO___________ 27.4000 130.700 6 1000 0 0 0 27.4000 130.600 1 29 1000 13 85
2001125N05129 2001 21 WP MM CIMARON 2001-05-14 21:00:00 MX 27.4204 131.301 main 406 406 _PP___________ 27.3914 131.301 6 1001 0 0 27.4494 131.300 1 29 1001 12 88
2001125N05129 2001 21 WP MM CIMARON 2001-05-15 00:00:00 MX 27.4500 131.950 1002 tokyo main 410 410 _OO___________ 27.4000 131.900 6 1002 0 0 0 27.5000 132.000 1 29 1002 13 83
2001125N05129 2001 21 WP MM CIMARON 2001-05-15 03:00:00 MX 27.5791 132.739 main 426 426 _PP___________ 27.5506 132.707 6 1002 0 0 27.6077 132.772 1 29 1002 14 80
2001125N05129 2001 21 WP MM CIMARON 2001-05-15 06:00:00 MX 27.7000 133.500 1002 tokyo main 457 457 _OO___________ 27.7000 133.500 6 1002 0 0 0 27.7000 133.500 1 29 1002 12 83
2001125N05129 2001 21 WP MM CIMARON 2001-05-15 09:00:00 MX 27.7299 134.102 main 488 488 _PP___________ 27.7372 134.111 6 1003 0 0 27.7225 134.093 1 26 1003 10 90
2001125N05129 2001 21 WP MM CIMARON 2001-05-15 12:00:00 MX 27.7000 134.600 1004 tokyo main 515 _OO___________ 27.7000 134.600 6 1004 0 0 0 27.7000 134.600 1 23 1004 9 94

Digital Typhoon Data and Search

About IBTrACS Database

This database is a web-friendly format of International Best Track Archive for Climate Stewardship (IBTrACS), a global best track data archive curated by NOAA dating back to 1842.

Updated: 2021-12-03